x

Sombrero Key, Fl (smkf1) Weather Station

8:00am - Fri 3rd Jul 2015 All times are CDT. -4 hours from GMT.

  • Wind
    10mph, 13mph gusts
  • Air Temp 84°f
  • Sea Pressure 1018.6mb
  • Sombrero Key, Fl
  • Sombrero Key, Fl

More Historic Weather Station data

Upgrade to MSW Pro to gain access to the past 30 days of data for over 8000 Wavebouys and Weather Stations around the globe.

Join Pro

Comparision Forecast

View Surf forecast
   
Fri 07/03 8:00am 10 13 mph 1018.6mb 84f
7:00am 13 14 mph 1018mb 83f
6:00am 21
mph
1017.3mb 83f
5:00am 14 16 mph 1017.4mb 84f
4:00am 18 22 mph 1017.6mb 83f
3:00am 13 15 mph 1018.3mb 83f
2:00am 15 16 mph 1018.5mb 83f
1:00am 13 14 mph 1019.3mb 84f
12:00am 15 16 mph 1019.9mb 84f
Thu 07/02 11:00pm 14 16 mph 1020.1mb 84f
10:00pm 13
mph
1019.7mb 84f
9:00pm 16 17 mph 1019.1mb 84f
8:00pm 14
mph
1019.1mb 85f
7:00pm 11 13 mph 1018.4mb 85f
6:00pm 14 15 mph 1017.3mb 86f
5:00pm 16 17 mph 1018mb 86f
4:00pm 14
mph
1018.6mb 86f
3:00pm 8 9 mph 1019.3mb 87f
2:00pm 9 10 mph 1020mb 86f
1:00pm 8 9 mph 1020.6mb 86f
12:00pm 8
mph
1020.6mb 86f
11:00am 13 14 mph 1020.2mb 85f
10:00am 15 17 mph 1020.1mb 85f
9:00am 15 16 mph 1019.6mb 85f
8:00am 18 20 mph 1019.3mb 84f
7:00am 16 18 mph 1018.8mb 84f
6:00am 18 20 mph 1018.1mb 84f
5:00am 20 22 mph 1017.9mb 84f
4:00am 13 14 mph 1018.3mb 84f
3:00am 17 18 mph 1018.3mb 84f
2:00am 16 17 mph 1019.2mb 84f
1:00am 13 14 mph 1020.2mb 84f
12:00am 18 20 mph 1020.4mb 84f
Wed 07/01 11:00pm 16 17 mph 1020.9mb 84f
10:00pm 18 20 mph 1020mb 84f
9:00pm 11 13 mph 1019.9mb 84f
8:00pm 14 15 mph 1019.6mb 85f
7:00pm 14 15 mph 1019.5mb 86f
6:00pm 14 15 mph 1019mb 86f
5:00pm 10 11 mph 1019.3mb 87f
4:00pm 13 14 mph 1019.2mb 87f
3:00pm 13 14 mph 1019.8mb 86f
2:00pm 14
mph
1020.3mb 86f
1:00pm 16
mph
1020.9mb 85f
12:00pm 15
mph
1021.2mb 85f
11:00am 16 17 mph 1020.9mb 85f
10:00am 16 17 mph 1021mb 85f
9:00am 15 17 mph 1020.6mb 85f
8:00am 17 18 mph 1020.5mb 83f
7:00am 20 22 mph 1020.3mb 84f
6:00am 22 23 mph 1020mb 83f
5:00am 13 14 mph 1019.7mb 84f
4:00am 13 14 mph 1020.1mb 84f
3:00am 13 15 mph 1020.4mb 84f
2:00am 10 11 mph 1020.7mb 84f
1:00am 10 11 mph 1021.2mb 84f
12:00am 11 13 mph 1021.2mb 84f
Tue 06/30 11:00pm 11 13 mph 1021.1mb 84f
10:00pm 14 15 mph 1020.4mb 84f
9:00pm 13 14 mph 1020.2mb 84f
8:00pm 16 17 mph 1019.5mb 85f
7:00pm 13 15 mph 1019.7mb 86f
6:00pm 16 18 mph 1019.4mb 86f
5:00pm 17 20 mph 1018.8mb 86f
4:00pm 15 17 mph 1019.5mb 87f
3:00pm 15 16 mph 1020.1mb 87f
2:00pm 11 13 mph 1020.7mb 87f
1:00pm 9 10 mph 1021.4mb 87f
12:00pm 9 10 mph 1021.4mb 86f
11:00am 14
mph
1021.1mb 86f
10:00am 11 13 mph 1021.1mb 86f
9:00am 9 10 mph 1020.7mb 85f
8:00am 7 8 mph 1020mb 84f
7:00am 6 7 mph 1019.7mb 84f
6:00am 5 6 mph 1019.4mb 83f
5:00am 5
mph
1019.1mb 83f
4:00am 10 11 mph 1019.1mb 83f
3:00am 9 10 mph 1019.7mb 84f
2:00am 10 11 mph 1019.9mb 84f
1:00am 11 13 mph 1020.9mb 84f
12:00am 7 8 mph 1021.1mb 85f
Mon 06/29 11:00pm 7
mph
1020.8mb 85f
10:00pm 2 3 mph 1020.3mb 86f
9:00pm 5 6 mph 1020mb 86f
8:00pm 8 9 mph 1019.8mb 86f
7:00pm 7 8 mph 1019.2mb 86f
6:00pm 3 5 mph 1019.1mb 86f
5:00pm 6 7 mph 1018.9mb 86f
4:00pm  -  1 mph 1019.4mb 89f
3:00pm  -  1 mph 1019.7mb 88f
2:00pm 3
mph
1020.3mb 88f